createdAt,value
2023-04-24T00:01:46.509Z,4.90
2023-04-24T00:06:43.871Z,5.13
2023-04-24T00:11:37.190Z,5.22
2023-04-24T00:16:37.494Z,4.82
2023-04-24T00:26:24.262Z,4.70
2023-04-24T00:31:17.436Z,4.55
2023-04-24T00:36:12.002Z,4.88
2023-04-24T00:41:05.227Z,5.00
2023-04-24T00:45:58.449Z,4.75
2023-04-24T00:50:51.759Z,4.80
2023-04-24T00:55:46.922Z,5.30
2023-04-24T01:00:40.542Z,5.43
2023-04-24T01:05:34.197Z,5.10
2023-04-24T01:10:29.722Z,5.00
2023-04-24T01:15:24.577Z,5.30
2023-04-24T01:20:19.283Z,5.50
2023-04-24T01:25:13.889Z,5.25
2023-04-24T01:30:08.937Z,5.30
2023-04-24T01:35:02.904Z,5.00
2023-04-24T01:39:56.241Z,5.03
2023-04-24T01:44:51.308Z,4.60
2023-04-24T01:49:44.794Z,4.85
2023-04-24T01:54:39.491Z,4.85
2023-04-24T01:59:35.453Z,5.28
2023-04-24T02:04:30.169Z,5.50
2023-04-24T02:09:24.016Z,5.03
2023-04-24T02:14:17.598Z,5.15
2023-04-24T02:19:10.808Z,5.40
2023-04-24T02:24:05.594Z,5.35
2023-04-24T02:28:58.769Z,4.95
2023-04-24T02:33:51.993Z,5.28
2023-04-24T02:38:45.232Z,5.20
2023-04-24T02:43:41.268Z,5.18
2023-04-24T02:48:34.624Z,5.60
2023-04-24T02:53:27.828Z,5.00
2023-04-24T02:58:21.612Z,6.10
2023-04-24T03:03:16.644Z,6.63
2023-04-24T03:08:09.968Z,6.00
2023-04-24T03:13:03.463Z,6.00
2023-04-24T03:17:57.018Z,6.55
2023-04-24T03:22:51.949Z,7.00
2023-04-24T03:27:45.940Z,6.15
2023-04-24T03:32:54.907Z,6.15
2023-04-24T03:37:54.493Z,6.72
2023-04-24T03:43:06.153Z,7.50
2023-04-24T03:47:59.768Z,7.65
2023-04-24T03:52:55.148Z,7.82
2023-04-24T03:58:00.610Z,6.93
2023-04-24T04:02:54.380Z,7.22
2023-04-24T04:07:48.548Z,8.10
2023-04-24T04:12:44.939Z,8.35
2023-04-24T04:17:41.928Z,7.97
2023-04-24T04:22:35.795Z,9.10
2023-04-24T04:27:35.732Z,8.60
2023-04-24T04:32:36.296Z,10.17
2023-04-24T04:37:32.365Z,7.78
2023-04-24T04:42:37.074Z,10.52
2023-04-24T04:47:33.811Z,9.10
2023-04-24T04:52:31.845Z,9.30
2023-04-24T04:57:46.537Z,10.30
2023-04-24T05:02:43.491Z,7.93
2023-04-24T05:07:39.110Z,8.60
2023-04-24T05:12:32.452Z,8.27
2023-04-24T05:17:29.336Z,6.25
2023-04-24T05:22:25.068Z,7.53
2023-04-24T05:27:21.720Z,6.53
2023-04-24T05:32:16.145Z,5.97
2023-04-24T05:37:11.097Z,6.10
2023-04-24T05:42:05.622Z,6.45
2023-04-24T05:47:00.233Z,5.93
2023-04-24T05:51:53.475Z,5.50
2023-04-24T05:56:47.946Z,6.00
2023-04-24T06:01:50.976Z,5.40
2023-04-24T06:06:51.894Z,5.10
2023-04-24T06:11:45.547Z,5.13
2023-04-24T06:16:41.132Z,4.80
2023-04-24T06:21:58.513Z,5.25
2023-04-24T06:26:52.293Z,4.90
2023-04-24T06:31:45.756Z,5.78
2023-04-24T06:36:39.708Z,5.15
2023-04-24T06:41:34.327Z,4.65
2023-04-24T06:46:29.637Z,5.93
2023-04-24T06:51:22.901Z,6.55
2023-04-24T06:56:16.196Z,5.57
2023-04-24T07:01:10.846Z,5.30
2023-04-24T07:06:04.482Z,5.22
2023-04-24T07:10:57.824Z,4.95
2023-04-24T07:15:52.129Z,4.95
2023-04-24T07:20:47.072Z,4.55
2023-04-24T07:25:40.548Z,5.97
2023-04-24T07:30:34.673Z,5.40
2023-04-24T07:35:29.910Z,4.82
2023-04-24T07:40:29.393Z,5.43
2023-04-24T07:45:24.178Z,5.45
2023-04-24T07:50:17.489Z,5.20
2023-04-24T07:55:10.632Z,4.93
2023-04-24T08:00:06.992Z,5.20
2023-04-24T08:05:05.207Z,4.45
2023-04-24T08:09:58.437Z,4.80
2023-04-24T08:14:51.769Z,4.75
2023-04-24T08:19:49.781Z,4.97
2023-04-24T08:24:43.032Z,5.10
2023-04-24T08:29:36.554Z,5.25
2023-04-24T08:34:29.786Z,4.47
2023-04-24T08:39:24.541Z,4.38
2023-04-24T08:44:18.905Z,4.57
2023-04-24T08:49:13.894Z,4.22
2023-04-24T08:54:12.780Z,4.57
2023-04-24T08:59:08.328Z,4.22
2023-04-24T09:04:04.763Z,6.60
2023-04-24T09:08:59.411Z,7.40
2023-04-24T09:13:53.489Z,3.83
2023-04-24T09:18:48.188Z,3.90
2023-04-24T09:23:41.544Z,4.25
2023-04-24T09:28:37.901Z,4.38
2023-04-24T09:33:32.183Z,4.15
2023-04-24T09:38:35.229Z,4.13
2023-04-24T09:43:29.521Z,5.43
2023-04-24T09:48:32.300Z,4.25
2023-04-24T09:53:28.292Z,4.05
2023-04-24T09:58:28.014Z,4.13
2023-04-24T10:03:28.212Z,3.95
2023-04-24T10:08:22.753Z,3.60
2023-04-24T10:13:17.049Z,4.05
2023-04-24T10:18:13.455Z,3.72
2023-04-24T10:23:07.298Z,4.05
2023-04-24T10:28:02.306Z,4.20
2023-04-24T10:32:55.959Z,4.93
2023-04-24T10:37:53.287Z,3.97
2023-04-24T10:42:50.172Z,4.40
2023-04-24T10:47:43.544Z,4.03
2023-04-24T10:52:46.746Z,4.07
2023-04-24T10:57:41.500Z,4.80
2023-04-24T11:02:39.850Z,4.65
2023-04-24T11:08:13.995Z,4.10
2023-04-24T11:13:12.767Z,3.90
2023-04-24T11:18:11.565Z,4.05
2023-04-24T11:23:07.893Z,4.18
2023-04-24T11:28:07.240Z,3.88
2023-04-24T11:33:06.714Z,4.30
2023-04-24T11:38:22.703Z,4.18
2023-04-24T11:43:20.991Z,4.18
2023-04-24T11:48:22.708Z,4.50
2023-04-24T11:53:17.041Z,4.50
2023-04-24T11:58:10.519Z,5.03
2023-04-24T12:03:09.334Z,4.45
2023-04-24T12:08:07.722Z,4.78
2023-04-24T12:13:11.843Z,4.80
2023-04-24T12:23:19.939Z,5.85
2023-04-24T12:28:15.199Z,5.22
2023-04-24T12:33:11.635Z,4.97
2023-04-24T12:38:09.209Z,5.55
2023-04-24T12:43:06.569Z,5.53
2023-04-24T12:48:03.287Z,5.25
2023-04-24T12:52:57.858Z,6.05
2023-04-24T12:57:56.476Z,5.03
2023-04-24T13:02:52.921Z,4.82
2023-04-24T13:07:46.866Z,4.85
2023-04-24T13:12:40.541Z,4.78
2023-04-24T13:17:35.724Z,4.70
2023-04-24T13:22:32.993Z,5.13
2023-04-24T13:27:26.279Z,4.60
2023-04-24T13:32:19.797Z,4.53
2023-04-24T13:37:13.292Z,4.93
2023-04-24T13:42:09.988Z,5.10
2023-04-24T13:47:03.803Z,5.25
2023-04-24T13:51:57.995Z,5.10
2023-04-24T13:56:53.651Z,4.18
2023-04-24T14:01:50.398Z,6.00
2023-04-24T14:06:43.904Z,4.65
2023-04-24T14:11:37.792Z,5.05
2023-04-24T14:16:31.833Z,5.13
2023-04-24T14:21:36.828Z,5.40
2023-04-24T14:26:30.353Z,5.85
2023-04-24T14:31:23.577Z,5.03
2023-04-24T14:36:20.092Z,6.38
2023-04-24T14:41:24.002Z,5.43
2023-04-24T14:46:17.695Z,5.32
2023-04-24T14:51:11.085Z,5.20
2023-04-24T14:56:09.727Z,6.53
2023-04-24T15:01:06.444Z,5.22
2023-04-24T15:06:06.181Z,5.63
2023-04-24T15:11:00.556Z,5.95
2023-04-24T15:15:56.314Z,5.25
2023-04-24T15:20:50.866Z,5.50
2023-04-24T15:25:44.167Z,5.90
2023-04-24T15:30:37.378Z,5.75
2023-04-24T15:35:32.998Z,5.68
2023-04-24T15:40:31.284Z,5.28
2023-04-24T15:45:27.512Z,5.53
2023-04-24T15:50:22.744Z,8.15
2023-04-24T15:55:16.003Z,5.57
2023-04-24T16:00:12.120Z,5.47
2023-04-24T16:05:07.582Z,5.05
2023-04-24T16:10:04.552Z,5.30
2023-04-24T16:14:58.071Z,5.18
2023-04-24T16:19:55.952Z,5.63
2023-04-24T16:24:49.210Z,5.78
2023-04-24T16:29:42.535Z,7.00
2023-04-24T16:34:35.882Z,5.82
2023-04-24T16:39:30.542Z,6.18
2023-04-24T16:44:23.767Z,5.82
2023-04-24T16:49:18.735Z,5.60
2023-04-24T16:54:12.686Z,5.50
2023-04-24T16:59:07.650Z,5.78
2023-04-24T17:04:04.134Z,6.00
2023-04-24T17:08:57.446Z,7.15
2023-04-24T17:13:50.691Z,7.20
2023-04-24T17:18:45.282Z,7.28
2023-04-24T17:23:38.971Z,5.85
2023-04-24T17:28:33.266Z,4.70
2023-04-24T17:33:26.690Z,5.90
2023-04-24T17:38:21.746Z,5.72
2023-04-24T17:43:18.092Z,5.13
2023-04-24T17:48:11.555Z,5.82
2023-04-24T17:53:05.043Z,5.10
2023-04-24T17:58:01.962Z,5.50
2023-04-24T18:03:00.984Z,5.97
2023-04-24T18:07:54.838Z,5.90
2023-04-24T18:12:49.461Z,8.57
2023-04-24T18:17:44.520Z,6.00
2023-04-24T18:22:38.020Z,6.68
2023-04-24T18:27:31.947Z,5.88
2023-04-24T18:32:28.355Z,6.53
2023-04-24T18:37:22.971Z,6.45
2023-04-24T18:42:16.235Z,5.60
2023-04-24T18:47:10.032Z,6.07
2023-04-24T18:52:03.508Z,6.15
2023-04-24T18:56:58.225Z,6.65
2023-04-24T19:01:51.594Z,7.47
2023-04-24T19:06:44.784Z,7.03
2023-04-24T19:11:37.905Z,8.10
2023-04-24T19:16:33.845Z,10.70
2023-04-24T19:21:27.585Z,6.95
2023-04-24T19:26:24.073Z,7.68
2023-04-24T19:31:21.171Z,6.88
2023-04-24T19:36:19.005Z,6.65
2023-04-24T19:41:12.455Z,6.63
2023-04-24T19:46:09.757Z,7.22
2023-04-24T19:51:13.488Z,7.25
2023-04-24T19:56:09.307Z,7.30
2023-04-24T20:01:06.373Z,6.90
2023-04-24T20:05:59.630Z,7.07
2023-04-24T20:10:54.661Z,7.60
2023-04-24T20:15:49.616Z,7.68
2023-04-24T20:20:46.759Z,7.20
2023-04-24T20:25:40.466Z,8.25
2023-04-24T20:30:38.086Z,7.40
2023-04-24T20:35:35.306Z,7.15
2023-04-24T20:40:35.513Z,6.90
2023-04-24T20:45:31.282Z,5.63
2023-04-24T20:50:30.656Z,5.25
2023-04-24T20:55:25.764Z,4.95
2023-04-24T21:00:23.951Z,5.30
2023-04-24T21:05:18.619Z,5.55
2023-04-24T21:10:16.658Z,5.28
2023-04-24T21:15:12.129Z,5.45
2023-04-24T21:20:06.391Z,6.18
2023-04-24T21:25:01.216Z,5.95
2023-04-24T21:29:56.942Z,6.38
2023-04-24T21:34:51.828Z,6.25
2023-04-24T21:39:46.293Z,5.90
2023-04-24T21:44:39.624Z,6.07
2023-04-24T21:49:34.414Z,6.13
2023-04-24T21:54:32.813Z,5.95
2023-04-24T21:59:26.154Z,6.40
2023-04-24T22:04:19.412Z,5.97
2023-04-24T22:09:12.753Z,6.55
2023-04-24T22:14:07.344Z,5.75
2023-04-24T22:19:00.443Z,5.72
2023-04-24T22:23:53.615Z,5.88
2023-04-24T22:28:48.213Z,5.40
2023-04-24T22:33:43.423Z,5.35
2023-04-24T22:38:36.548Z,5.82
2023-04-24T22:43:29.908Z,5.65
2023-04-24T22:48:23.178Z,5.63
2023-04-24T22:53:17.681Z,5.28
2023-04-24T22:58:10.999Z,5.50
2023-04-24T23:03:04.667Z,5.55
2023-04-24T23:07:58.273Z,5.47
2023-04-24T23:12:52.831Z,4.80
2023-04-24T23:17:45.995Z,5.75
2023-04-24T23:22:41.371Z,6.05
2023-04-24T23:27:34.581Z,5.28
2023-04-24T23:32:29.224Z,5.55
2023-04-24T23:37:22.777Z,5.32
2023-04-24T23:42:15.879Z,5.40
2023-04-24T23:47:09.039Z,5.85
2023-04-24T23:52:03.795Z,5.63
2023-04-24T23:56:57.095Z,5.65
